createdAt,value
2023-03-25T00:01:18.233Z,100169.75
2023-03-25T00:03:50.462Z,100171.59
2023-03-25T00:06:17.309Z,100152.00
2023-03-25T00:08:43.907Z,100155.69
2023-03-25T00:11:10.474Z,100150.47
2023-03-25T00:13:37.240Z,100163.91
2023-03-25T00:16:04.481Z,100170.28
2023-03-25T00:18:34.243Z,100158.72
2023-03-25T00:21:02.551Z,100165.94
2023-03-25T00:23:31.139Z,100166.94
2023-03-25T00:26:00.637Z,100165.25
2023-03-25T00:28:33.253Z,100164.59
2023-03-25T00:31:01.840Z,100167.28
2023-03-25T00:33:29.195Z,100164.75
2023-03-25T00:36:01.858Z,100158.53
2023-03-25T00:38:33.582Z,100154.00
2023-03-25T00:41:11.944Z,100158.53
2023-03-25T00:43:38.801Z,100173.81
2023-03-25T00:46:05.470Z,100163.06
2023-03-25T00:48:32.014Z,100164.91
2023-03-25T00:50:58.741Z,100162.44
2023-03-25T00:53:25.447Z,100157.06
2023-03-25T00:55:56.995Z,100163.41
2023-03-25T00:58:23.502Z,100166.94
2023-03-25T01:00:50.573Z,100161.75
2023-03-25T01:03:17.198Z,100158.22
2023-03-25T01:05:43.746Z,100160.91
2023-03-25T01:08:11.143Z,100166.28
2023-03-25T01:10:38.043Z,100165.44
2023-03-25T01:13:04.550Z,100162.75
2023-03-25T01:15:31.167Z,100153.88
2023-03-25T01:17:57.733Z,100152.03
2023-03-25T01:20:24.321Z,100153.03
2023-03-25T01:22:50.897Z,100144.16
2023-03-25T01:25:17.481Z,100150.38
2023-03-25T01:27:44.196Z,100159.38
2023-03-25T01:30:11.534Z,100143.31
2023-03-25T01:32:38.135Z,100145.16
2023-03-25T01:35:06.387Z,100145.34
2023-03-25T01:37:34.174Z,100147.19
2023-03-25T01:40:00.704Z,100143.66
2023-03-25T01:42:27.205Z,100155.38
2023-03-25T01:44:53.678Z,100137.63
2023-03-25T01:47:20.364Z,100145.84
2023-03-25T01:49:47.079Z,100140.50
2023-03-25T01:52:21.315Z,100132.78
2023-03-25T01:54:50.269Z,100140.63
2023-03-25T01:57:20.674Z,100139.16
2023-03-25T01:59:47.957Z,100143.69
2023-03-25T02:02:17.741Z,100142.81
2023-03-25T02:05:01.979Z,100131.25
2023-03-25T02:07:32.524Z,100135.78
2023-03-25T02:10:06.674Z,100135.13
2023-03-25T02:12:33.622Z,100126.25
2023-03-25T02:15:02.809Z,100128.94
2023-03-25T02:17:47.663Z,100138.97
2023-03-25T02:21:03.638Z,100133.81
2023-03-25T02:23:57.987Z,100140.00
2023-03-25T02:26:29.755Z,100133.13
2023-03-25T02:29:28.142Z,100144.53
2023-03-25T02:31:54.654Z,100131.97
2023-03-25T02:34:49.081Z,100138.47
2023-03-25T02:37:53.226Z,100128.78
2023-03-25T02:40:25.791Z,100126.09
2023-03-25T02:43:00.227Z,100125.22
2023-03-25T02:45:33.820Z,100125.22
2023-03-25T02:48:18.301Z,100125.38
2023-03-25T02:50:52.344Z,100128.06
2023-03-25T02:53:26.006Z,100120.03
2023-03-25T02:55:57.523Z,100132.44
2023-03-25T02:58:25.123Z,100126.41
2023-03-25T03:00:53.475Z,100121.03
2023-03-25T03:03:20.490Z,100112.16
2023-03-25T03:05:51.581Z,100118.34
2023-03-25T03:08:27.190Z,100113.16
2023-03-25T03:11:15.395Z,100111.50
2023-03-25T03:14:34.418Z,100109.81
2023-03-25T03:17:07.112Z,100103.28
2023-03-25T03:19:40.489Z,100102.59
2023-03-25T03:22:35.324Z,100101.94
2023-03-25T03:25:34.712Z,100100.09
2023-03-25T03:28:01.452Z,100105.47
2023-03-25T03:30:43.077Z,100096.59
2023-03-25T03:33:25.418Z,100091.56
2023-03-25T03:36:02.123Z,100097.75
2023-03-25T03:38:34.828Z,100086.38
2023-03-25T03:41:06.627Z,100079.31
2023-03-25T03:43:45.204Z,100101.78
2023-03-25T03:46:22.636Z,100088.56
2023-03-25T03:48:55.189Z,100091.25
2023-03-25T03:51:41.568Z,100082.53
2023-03-25T03:54:23.507Z,100092.59
2023-03-25T03:57:01.826Z,100096.28
2023-03-25T03:59:35.198Z,100099.94
2023-03-25T04:02:08.977Z,100095.41
2023-03-25T04:04:38.838Z,100095.59
2023-03-25T04:07:17.048Z,100095.41
2023-03-25T04:09:57.193Z,100104.47
2023-03-25T04:12:35.167Z,100114.34
2023-03-25T04:15:03.607Z,100098.44
2023-03-25T04:17:32.870Z,100111.00
2023-03-25T04:20:00.487Z,100104.78
2023-03-25T04:22:26.990Z,100110.16
2023-03-25T04:24:55.031Z,100102.13
2023-03-25T04:27:23.147Z,100090.56
2023-03-25T04:29:51.772Z,100095.09
2023-03-25T04:32:18.748Z,100099.44
2023-03-25T04:34:46.910Z,100108.47
2023-03-25T04:37:13.914Z,100095.09
2023-03-25T04:39:40.532Z,100091.56
2023-03-25T04:42:07.087Z,100102.28
2023-03-25T04:44:33.914Z,100102.28
2023-03-25T04:47:02.245Z,100108.47
2023-03-25T04:49:28.746Z,100102.13
2023-03-25T04:51:56.873Z,100102.28
2023-03-25T04:54:23.997Z,100105.81
2023-03-25T04:56:52.127Z,100113.00
2023-03-25T04:59:21.069Z,100103.97
2023-03-25T05:01:48.401Z,100102.13
2023-03-25T05:04:17.181Z,100096.94
2023-03-25T05:06:46.937Z,100105.66
2023-03-25T05:09:16.308Z,100106.63
2023-03-25T05:11:43.139Z,100099.44
2023-03-25T05:14:11.228Z,100113.84
2023-03-25T05:16:38.073Z,100118.19
2023-03-25T05:19:06.615Z,100120.03
2023-03-25T05:21:36.043Z,100119.19
2023-03-25T05:24:03.807Z,100118.19
2023-03-25T05:26:34.309Z,100112.84
2023-03-25T05:29:05.271Z,100121.72
2023-03-25T05:31:31.955Z,100124.41
2023-03-25T05:33:58.546Z,100127.09
2023-03-25T05:36:26.184Z,100116.38
2023-03-25T05:38:55.202Z,100121.72
2023-03-25T05:41:22.878Z,100124.41
2023-03-25T05:43:50.864Z,100125.41
2023-03-25T05:46:19.170Z,100131.75
2023-03-25T05:48:46.152Z,100136.09
2023-03-25T05:51:16.224Z,100141.66
2023-03-25T05:53:50.041Z,100145.16
2023-03-25T05:56:19.237Z,100145.34
2023-03-25T05:58:47.298Z,100150.50
2023-03-25T06:01:31.297Z,100133.59
2023-03-25T06:04:03.453Z,100143.31
2023-03-25T06:06:32.390Z,100149.69
2023-03-25T06:08:59.518Z,100152.19
2023-03-25T06:11:26.081Z,100140.50
2023-03-25T06:13:54.076Z,100156.56
2023-03-25T06:16:23.383Z,100157.41
2023-03-25T06:18:56.024Z,100153.88
2023-03-25T06:21:32.929Z,100147.66
2023-03-25T06:24:01.708Z,100149.34
2023-03-25T06:26:28.382Z,100170.78
2023-03-25T06:28:55.017Z,100156.56
2023-03-25T06:31:33.156Z,100162.91
2023-03-25T06:33:59.726Z,100164.75
2023-03-25T06:36:26.265Z,100157.53
2023-03-25T06:38:53.680Z,100165.75
2023-03-25T06:41:20.912Z,100165.75
2023-03-25T06:43:48.982Z,100159.56
2023-03-25T06:46:16.466Z,100157.72
2023-03-25T06:48:42.984Z,100176.28
2023-03-25T06:51:09.531Z,100167.44
2023-03-25T06:53:36.108Z,100172.78
2023-03-25T06:56:02.808Z,100178.97
2023-03-25T06:58:34.830Z,100172.78
2023-03-25T07:01:06.631Z,100171.94
2023-03-25T07:03:34.143Z,100172.78
2023-03-25T07:06:00.770Z,100181.66
2023-03-25T07:08:27.354Z,100176.28
2023-03-25T07:10:53.907Z,100172.63
2023-03-25T07:13:20.394Z,100171.63
2023-03-25T07:15:47.034Z,100177.63
2023-03-25T07:18:16.085Z,100175.66
2023-03-25T07:20:46.481Z,100191.53
2023-03-25T07:23:13.479Z,100184.00
2023-03-25T07:25:40.001Z,100188.03
2023-03-25T07:28:06.564Z,100186.53
2023-03-25T07:30:33.074Z,100184.03
2023-03-25T07:32:59.715Z,100186.56
2023-03-25T07:35:26.304Z,100179.84
2023-03-25T07:37:52.958Z,100181.84
2023-03-25T07:40:19.480Z,100180.97
2023-03-25T07:42:46.037Z,100185.63
2023-03-25T07:45:12.826Z,100188.78
2023-03-25T07:47:39.452Z,100183.03
2023-03-25T07:50:06.833Z,100193.94
2023-03-25T07:52:33.491Z,100187.88
2023-03-25T07:55:00.926Z,100187.69
2023-03-25T07:57:27.563Z,100190.19
2023-03-25T07:59:54.095Z,100195.41
2023-03-25T08:02:20.946Z,100197.91
2023-03-25T08:04:47.547Z,100190.69
2023-03-25T08:07:14.052Z,100202.25
2023-03-25T08:09:41.476Z,100196.91
2023-03-25T08:12:09.109Z,100204.94
2023-03-25T08:14:35.817Z,100193.38
2023-03-25T08:17:02.315Z,100207.00
2023-03-25T08:19:28.914Z,100199.59
2023-03-25T08:21:55.983Z,100212.03
2023-03-25T08:24:24.530Z,100219.06
2023-03-25T08:26:51.062Z,100210.81
2023-03-25T08:29:17.890Z,100223.91
2023-03-25T08:31:46.606Z,100223.72
2023-03-25T08:34:13.781Z,100222.72
2023-03-25T08:36:40.369Z,100214.28
2023-03-25T08:39:11.684Z,100215.16
2023-03-25T08:41:39.668Z,100218.69
2023-03-25T08:44:07.298Z,100223.03
2023-03-25T08:46:33.856Z,100217.66
2023-03-25T08:49:01.211Z,100219.50
2023-03-25T08:51:27.746Z,100223.03
2023-03-25T08:53:54.394Z,100234.41
2023-03-25T08:56:20.934Z,100234.41
2023-03-25T08:58:47.453Z,100222.69
2023-03-25T09:01:14.172Z,100230.75
2023-03-25T09:03:41.075Z,100220.63
2023-03-25T09:06:09.202Z,100233.91
2023-03-25T09:08:39.869Z,100225.47
2023-03-25T09:11:06.666Z,100224.31
2023-03-25T09:13:33.241Z,100234.03
2023-03-25T09:15:59.786Z,100229.50
2023-03-25T09:18:26.375Z,100237.41
2023-03-25T09:20:57.961Z,100238.22
2023-03-25T09:23:24.674Z,100228.31
2023-03-25T09:25:51.391Z,100245.94
2023-03-25T09:28:18.147Z,100238.53
2023-03-25T09:30:44.714Z,100238.72
2023-03-25T09:33:12.153Z,100241.41
2023-03-25T09:35:40.843Z,100243.72
2023-03-25T09:38:07.512Z,100244.56
2023-03-25T09:40:34.245Z,100237.34
2023-03-25T09:43:15.397Z,100248.44
2023-03-25T09:45:49.987Z,100247.59
2023-03-25T09:48:25.867Z,100247.75
2023-03-25T09:50:53.628Z,100234.34
2023-03-25T09:53:37.706Z,100257.19
2023-03-25T09:56:10.641Z,100256.19
2023-03-25T09:58:46.188Z,100256.53
2023-03-25T10:01:27.652Z,100258.41
2023-03-25T10:04:20.302Z,100255.88
2023-03-25T10:07:14.825Z,100260.59
2023-03-25T10:09:47.340Z,100265.25
2023-03-25T10:12:37.522Z,100276.31
2023-03-25T10:15:25.020Z,100260.31
2023-03-25T10:18:09.634Z,100262.50
2023-03-25T10:21:11.257Z,100250.22
2023-03-25T10:24:19.151Z,100272.84
2023-03-25T10:26:48.666Z,100268.44
2023-03-25T10:29:21.430Z,100272.44
2023-03-25T10:31:56.733Z,100264.19
2023-03-25T10:34:46.694Z,100264.66
2023-03-25T10:37:18.091Z,100267.00
2023-03-25T10:39:47.319Z,100286.53
2023-03-25T10:42:34.887Z,100294.59
2023-03-25T10:45:01.541Z,100285.16
2023-03-25T10:47:36.389Z,100297.41
2023-03-25T10:50:04.542Z,100282.78
2023-03-25T10:52:31.218Z,100288.97
2023-03-25T10:54:58.720Z,100298.59
2023-03-25T10:57:32.223Z,100285.19
2023-03-25T11:00:18.826Z,100294.78
2023-03-25T11:02:46.990Z,100304.00
2023-03-25T11:05:18.974Z,100302.28
2023-03-25T11:07:55.149Z,100298.56
2023-03-25T11:10:28.272Z,100282.38
2023-03-25T11:12:58.424Z,100303.16
2023-03-25T11:15:29.715Z,100304.09
2023-03-25T11:18:22.175Z,100302.75
2023-03-25T11:20:56.524Z,100303.03
2023-03-25T11:23:31.118Z,100314.09
2023-03-25T11:26:06.175Z,100317.09
2023-03-25T11:28:38.147Z,100309.97
2023-03-25T11:31:17.242Z,100319.50
2023-03-25T11:33:46.728Z,100300.78
2023-03-25T11:36:17.739Z,100301.28
2023-03-25T11:38:50.922Z,100316.69
2023-03-25T11:41:17.562Z,100301.00
2023-03-25T11:43:48.847Z,100314.78
2023-03-25T11:46:18.909Z,100295.41
2023-03-25T11:48:46.851Z,100300.41
2023-03-25T11:51:16.412Z,100306.44
2023-03-25T11:53:59.300Z,100308.78
2023-03-25T11:56:38.261Z,100305.69
2023-03-25T11:59:25.858Z,100321.50
2023-03-25T12:02:01.842Z,100302.47
2023-03-25T12:04:29.699Z,100309.34
2023-03-25T12:07:02.043Z,100308.16
2023-03-25T12:09:31.724Z,100305.25
2023-03-25T12:12:36.569Z,100351.72
2023-03-25T12:15:08.967Z,100285.69
2023-03-25T12:17:59.554Z,100303.69
2023-03-25T12:20:29.926Z,100311.03
2023-03-25T12:23:15.502Z,100314.56
2023-03-25T12:25:53.814Z,100326.16
2023-03-25T12:28:47.775Z,100314.00
2023-03-25T12:31:48.354Z,100299.53
2023-03-25T12:34:44.815Z,100304.72
2023-03-25T12:37:42.101Z,100305.53
2023-03-25T12:40:23.727Z,100313.25
2023-03-25T12:43:00.375Z,100315.59
2023-03-25T12:45:39.679Z,100310.66
2023-03-25T12:48:12.345Z,100316.50
2023-03-25T12:51:03.362Z,100324.22
2023-03-25T12:53:48.524Z,100322.66
2023-03-25T12:57:06.362Z,100313.69
2023-03-25T12:59:36.388Z,100324.47
2023-03-25T13:02:14.729Z,100335.66
2023-03-25T13:05:08.965Z,100320.88
2023-03-25T13:07:38.671Z,100337.78
2023-03-25T13:10:27.790Z,100342.91
2023-03-25T13:12:59.620Z,100339.94
2023-03-25T13:15:36.619Z,100337.78
2023-03-25T13:18:22.439Z,100351.63
2023-03-25T13:20:58.975Z,100361.72
2023-03-25T13:23:29.050Z,100343.44
2023-03-25T13:26:01.093Z,100351.88
2023-03-25T13:28:38.320Z,100375.00
2023-03-25T13:31:08.324Z,100374.72
2023-03-25T13:33:43.064Z,100369.03
2023-03-25T13:36:16.073Z,100370.25
2023-03-25T13:38:56.493Z,100353.41
2023-03-25T13:41:28.337Z,100370.78
2023-03-25T13:44:16.941Z,100390.16
2023-03-25T13:46:48.432Z,100391.19
2023-03-25T13:49:27.695Z,100380.28
2023-03-25T13:51:54.960Z,100415.63
2023-03-25T13:54:47.016Z,100403.91
2023-03-25T13:57:13.579Z,100398.03
2023-03-25T14:00:14.679Z,100409.16
2023-03-25T14:02:47.150Z,100412.16
2023-03-25T14:05:51.518Z,100398.53
2023-03-25T14:08:22.590Z,100394.25
2023-03-25T14:11:23.047Z,100382.78
2023-03-25T14:13:55.737Z,100384.09
2023-03-25T14:16:27.210Z,100390.16
2023-03-25T14:18:59.905Z,100386.28
2023-03-25T14:21:27.102Z,100382.41
2023-03-25T14:24:28.499Z,100396.50
2023-03-25T14:27:05.686Z,100390.75
2023-03-25T14:29:46.429Z,100400.34
2023-03-25T14:32:16.050Z,100408.03
2023-03-25T14:34:44.488Z,100399.78
2023-03-25T14:37:34.145Z,100400.44
2023-03-25T14:40:21.970Z,100402.13
2023-03-25T14:42:59.906Z,100396.34
2023-03-25T14:45:32.470Z,100408.81
2023-03-25T14:48:00.629Z,100403.25
2023-03-25T14:50:29.846Z,100411.13
2023-03-25T14:53:05.105Z,100408.44
2023-03-25T14:55:44.061Z,100413.66
2023-03-25T14:58:27.758Z,100412.81
2023-03-25T15:01:00.158Z,100423.13
2023-03-25T15:04:07.797Z,100415.28
2023-03-25T15:06:34.981Z,100433.13
2023-03-25T15:09:09.619Z,100461.53
2023-03-25T15:11:38.864Z,100472.78
2023-03-25T15:14:19.046Z,100461.31
2023-03-25T15:16:48.686Z,100472.19
2023-03-25T15:19:17.626Z,100476.84
2023-03-25T15:22:02.905Z,100465.53
2023-03-25T15:24:33.942Z,100466.66
2023-03-25T15:27:08.489Z,100480.59
2023-03-25T15:29:54.960Z,100498.44
2023-03-25T15:32:53.063Z,100484.13
2023-03-25T15:35:48.536Z,100493.03
2023-03-25T15:38:30.990Z,100491.56
2023-03-25T15:41:11.333Z,100495.09
2023-03-25T15:44:22.693Z,100504.38
2023-03-25T15:47:25.780Z,100495.44
2023-03-25T15:50:17.015Z,100493.78
2023-03-25T15:53:41.396Z,100499.53
2023-03-25T15:56:15.973Z,100490.81
2023-03-25T15:59:24.548Z,100492.19
2023-03-25T16:01:52.947Z,100487.78
2023-03-25T16:04:40.525Z,100498.09
2023-03-25T16:07:12.183Z,100501.81
2023-03-25T16:09:44.718Z,100493.91
2023-03-25T16:12:11.984Z,100504.22
2023-03-25T16:14:39.538Z,100514.69
2023-03-25T16:17:08.823Z,100505.31
2023-03-25T16:19:41.677Z,100538.81
2023-03-25T16:22:20.476Z,100559.50
2023-03-25T16:24:48.776Z,100543.84
2023-03-25T16:27:34.380Z,100545.81
2023-03-25T16:30:01.355Z,100544.06
2023-03-25T16:32:33.994Z,100544.00
2023-03-25T16:35:00.885Z,100546.00
2023-03-25T16:37:28.655Z,100547.88
2023-03-25T16:39:57.595Z,100545.03
2023-03-25T16:42:34.332Z,100546.59
2023-03-25T16:45:02.432Z,100554.03
2023-03-25T16:47:33.297Z,100574.06
2023-03-25T16:50:01.590Z,100577.97
2023-03-25T16:52:31.887Z,100546.81
2023-03-25T16:54:58.390Z,100570.25
2023-03-25T16:57:32.534Z,100576.81
2023-03-25T17:00:17.212Z,100564.38
2023-03-25T17:02:45.867Z,100571.59
2023-03-25T17:05:20.519Z,100574.50
2023-03-25T17:07:50.028Z,100581.72
2023-03-25T17:10:25.435Z,100580.38
2023-03-25T17:13:11.077Z,100579.94
2023-03-25T17:15:38.362Z,100581.94
2023-03-25T17:18:14.314Z,100587.03
2023-03-25T17:20:43.721Z,100589.03
2023-03-25T17:23:19.174Z,100594.09
2023-03-25T17:26:00.119Z,100607.06
2023-03-25T17:28:58.035Z,100600.53
2023-03-25T17:31:30.528Z,100600.69
2023-03-25T17:34:11.854Z,100606.25
2023-03-25T17:36:42.068Z,100618.88
2023-03-25T17:39:21.608Z,100637.06
2023-03-25T17:42:01.537Z,100630.84
2023-03-25T17:44:39.179Z,100633.53
2023-03-25T17:47:08.305Z,100634.34
2023-03-25T17:49:35.312Z,100635.38
2023-03-25T17:52:02.879Z,100630.00
2023-03-25T17:54:29.571Z,100630.19
2023-03-25T17:56:56.339Z,100648.19
2023-03-25T17:59:27.580Z,100658.28
2023-03-25T18:01:54.234Z,100666.69
2023-03-25T18:04:21.873Z,100678.66
2023-03-25T18:06:48.898Z,100685.72
2023-03-25T18:09:24.806Z,100690.06
2023-03-25T18:11:54.465Z,100687.22
2023-03-25T18:14:22.293Z,100674.41
2023-03-25T18:16:50.024Z,100683.34
2023-03-25T18:19:31.072Z,100685.53
2023-03-25T18:22:01.990Z,100681.16
2023-03-25T18:24:34.127Z,100683.34
2023-03-25T18:27:00.716Z,100677.31
2023-03-25T18:29:30.511Z,100674.13
2023-03-25T18:31:58.057Z,100689.94
2023-03-25T18:34:26.057Z,100682.38
2023-03-25T18:36:53.982Z,100675.66
2023-03-25T18:39:26.172Z,100685.91
2023-03-25T18:41:52.818Z,100693.50
2023-03-25T18:44:19.689Z,100686.94
2023-03-25T18:46:46.657Z,100683.59
2023-03-25T18:49:16.786Z,100680.53
2023-03-25T18:51:43.844Z,100678.22
2023-03-25T18:54:11.064Z,100686.63
2023-03-25T18:56:37.927Z,100690.66
2023-03-25T18:59:04.490Z,100686.44
2023-03-25T19:01:31.024Z,100690.47
2023-03-25T19:04:02.553Z,100697.16
2023-03-25T19:06:30.393Z,100691.97
2023-03-25T19:08:57.458Z,100690.78
2023-03-25T19:11:24.562Z,100699.19
2023-03-25T19:13:52.122Z,100695.16
2023-03-25T19:16:22.019Z,100698.16
2023-03-25T19:18:48.826Z,100703.88
2023-03-25T19:21:17.688Z,100706.88
2023-03-25T19:23:44.449Z,100708.91
2023-03-25T19:26:12.189Z,100715.44
2023-03-25T19:28:39.040Z,100709.56
2023-03-25T19:31:05.636Z,100720.47
2023-03-25T19:33:32.451Z,100714.59
2023-03-25T19:36:01.474Z,100710.56
2023-03-25T19:38:28.714Z,100711.56
2023-03-25T19:41:10.484Z,100715.59
2023-03-25T19:43:37.635Z,100718.09
2023-03-25T19:46:08.077Z,100713.03
2023-03-25T19:48:35.517Z,100701.78
2023-03-25T19:51:02.276Z,100705.66
2023-03-25T19:53:29.323Z,100703.13
2023-03-25T19:55:56.779Z,100701.63
2023-03-25T19:58:25.941Z,100695.56
2023-03-25T20:00:53.034Z,100701.09
2023-03-25T20:03:24.024Z,100704.09
2023-03-25T20:05:57.476Z,100697.22
2023-03-25T20:08:25.788Z,100697.38
2023-03-25T20:10:53.648Z,100694.19
2023-03-25T20:13:20.825Z,100697.88
2023-03-25T20:15:50.768Z,100706.94
2023-03-25T20:18:18.174Z,100697.34
2023-03-25T20:20:44.752Z,100710.13
2023-03-25T20:23:11.657Z,100710.44
2023-03-25T20:25:38.478Z,100696.50
2023-03-25T20:28:05.984Z,100698.34
2023-03-25T20:30:36.026Z,100704.84
2023-03-25T20:33:02.725Z,100711.25
2023-03-25T20:35:30.395Z,100709.66
2023-03-25T20:37:57.558Z,100703.63
2023-03-25T20:40:33.871Z,100709.00
2023-03-25T20:43:04.546Z,100708.50
2023-03-25T20:45:32.808Z,100703.25
2023-03-25T20:47:59.687Z,100700.91
2023-03-25T20:50:27.156Z,100703.59
2023-03-25T20:52:53.893Z,100697.53
2023-03-25T20:55:21.062Z,100706.59
2023-03-25T20:57:47.577Z,100707.63
2023-03-25T21:00:14.563Z,100706.78
2023-03-25T21:02:41.732Z,100706.78
2023-03-25T21:05:08.664Z,100716.63
2023-03-25T21:07:35.519Z,100717.81
2023-03-25T21:10:02.311Z,100715.13
2023-03-25T21:12:40.495Z,100718.84
2023-03-25T21:15:10.263Z,100733.09
2023-03-25T21:17:37.221Z,100732.25
2023-03-25T21:20:07.550Z,100741.28
2023-03-25T21:22:34.844Z,100743.13
2023-03-25T21:25:01.493Z,100745.97
2023-03-25T21:27:38.991Z,100742.47
2023-03-25T21:30:07.916Z,100740.75
2023-03-25T21:32:34.655Z,100739.06
2023-03-25T21:35:01.226Z,100737.41
2023-03-25T21:37:28.997Z,100743.78
2023-03-25T21:39:57.977Z,100749.28
2023-03-25T21:42:24.873Z,100748.44
2023-03-25T21:44:51.588Z,100756.66
2023-03-25T21:47:18.271Z,100766.56
2023-03-25T21:49:44.809Z,100768.53
2023-03-25T21:52:14.760Z,100769.56
2023-03-25T21:54:43.370Z,100765.19
2023-03-25T21:57:11.395Z,100763.50
2023-03-25T21:59:38.427Z,100771.69
2023-03-25T22:02:05.851Z,100785.28
2023-03-25T22:04:34.760Z,100778.22
2023-03-25T22:07:01.336Z,100790.78
2023-03-25T22:09:27.813Z,100792.63
2023-03-25T22:11:54.415Z,100784.59
2023-03-25T22:14:20.910Z,100789.28
2023-03-25T22:16:47.478Z,100787.56
2023-03-25T22:19:14.131Z,100783.06
2023-03-25T22:21:40.816Z,100787.56
2023-03-25T22:24:08.105Z,100790.25
2023-03-25T22:26:36.759Z,100783.91
2023-03-25T22:29:06.076Z,100787.56
2023-03-25T22:31:39.298Z,100783.06
2023-03-25T22:34:11.848Z,100780.38
2023-03-25T22:36:40.784Z,100784.91
2023-03-25T22:39:07.640Z,100783.06
2023-03-25T22:41:34.267Z,100788.59
2023-03-25T22:44:00.877Z,100784.22
2023-03-25T22:46:27.479Z,100782.38
2023-03-25T22:48:54.022Z,100784.22
2023-03-25T22:51:21.173Z,100792.28
2023-03-25T22:53:48.415Z,100793.13
2023-03-25T22:56:15.142Z,100791.44
2023-03-25T22:58:41.990Z,100801.31
2023-03-25T23:01:23.978Z,100791.56
2023-03-25T23:03:51.575Z,100793.28
2023-03-25T23:06:18.237Z,100794.13
2023-03-25T23:08:45.201Z,100797.78
2023-03-25T23:11:20.482Z,100801.47
2023-03-25T23:13:51.430Z,100800.63
2023-03-25T23:16:20.048Z,100794.25
2023-03-25T23:18:46.826Z,100802.31
2023-03-25T23:21:15.916Z,100797.09
2023-03-25T23:23:53.414Z,100785.38
2023-03-25T23:26:24.828Z,100788.06
2023-03-25T23:28:53.061Z,100788.06
2023-03-25T23:31:29.061Z,100792.56
2023-03-25T23:33:58.923Z,100789.91
2023-03-25T23:36:28.174Z,100780.00
2023-03-25T23:38:55.090Z,100780.84
2023-03-25T23:41:23.207Z,100789.91
2023-03-25T23:43:50.964Z,100784.53
2023-03-25T23:46:18.581Z,100775.66
2023-03-25T23:48:46.045Z,100773.81
2023-03-25T23:51:18.170Z,100771.28
2023-03-25T23:53:46.932Z,100777.50
2023-03-25T23:56:15.829Z,100780.31
2023-03-25T23:58:43.022Z,100768.75
